Latest Weather Observations for Fitzroy Crossing

IDW60801

Issued at 7:35 pm WST Sunday 21 September 2014 (issued every 30 minutes, with the page automatically refreshed every 10 minutes)

About weather observations | Map of weather stations | Latest weather observations for WA | Other Formats
Station Details ID: 003093 Name: FITZROY CROSSING AERO Lat: -18.18 Lon: 125.56 Height: 114.5 m
Data from the previous 72 hours. | See also: Recent months at Fitzroy Crossing
Date/Time
WST
Temp
°C
App
Temp
°C
Dew
Point
Rel
Hum
%
Delta-T
°C
Wind Press
QNH
hPa
Press
MSL
hPa
Rain
since 9 am
mm
Dir
 
Spd
km/h
Gust
km/h
Spd
kts
Gust
kts
21/07:30pm 31.7 29.2 4.5 18 14.3 NNE 7 9 4 5 1011.6 1010.9 0.0
21/07:00pm 34.5 32.8 4.1 15 16.1 E 2 7 1 4 1011.2 1010.5 0.0
21/06:30pm 33.6 32.3 4.3 16 15.5 CALM 0 0 0 0 1010.9 1010.2 0.0
21/06:00pm 34.2 32.9 3.9 15 16.0 CALM 0 0 0 0 1010.6 1009.9 0.0
21/05:30pm 36.4 34.2 3.6 13 17.4 NE 4 6 2 3 1010.3 1009.6 0.0
21/05:00pm 37.7 34.4 2.2 11 18.6 NNE 9 13 5 7 1010.0 1009.3 0.0
21/04:30pm 38.9 36.8 1.8 10 19.4 NW 2 9 1 5 1009.8 1009.1 0.0
21/04:00pm 38.9 35.7 3.1 11 19.1 NNE 9 17 5 9 1009.7 1009.0 0.0
21/03:30pm 39.1 34.4 3.3 11 19.2 N 17 26 9 14 1009.7 1009.0 0.0
21/03:00pm 39.0 34.3 3.2 11 19.1 N 17 28 9 15 1009.9 1009.2 0.0
21/02:30pm 40.1 34.7 2.7 10 19.9 NNW 20 28 11 15 1010.0 1009.3 0.0
21/02:00pm 39.6 36.5 3.7 11 19.4 WNW 9 19 5 10 1010.3 1009.6 0.0
21/01:30pm 38.6 35.9 2.9 11 18.9 E 6 11 3 6 1010.6 1009.9 0.0
21/01:00pm 39.5 35.9 4.8 12 19.0 NE 13 20 7 11 1011.0 1010.3 0.0
21/12:30pm 38.9 35.6 4.4 12 18.7 N 11 22 6 12 1011.5 1010.8 0.0
21/12:00pm 39.3 37.4 8.9 16 17.7 NW 9 24 5 13 1012.1 1011.4 0.0
21/11:30am 37.5 36.6 11.5 21 15.6 NW 7 11 4 6 1012.7 1012.0 0.0
21/11:00am 36.5 35.6 11.3 22 15.0 SSW 7 13 4 7 1013.4 1012.8 0.0
21/10:30am 35.6 34.3 12.5 24 14.0 SE 11 22 6 12 1014.2 1013.5 0.0
21/10:00am 34.6 33.8 12.9 27 13.1 SW 9 19 5 10 1014.6 1013.9 0.0
21/09:30am 34.2 34.0 13.1 28 12.8 W 6 13 3 7 1015.0 1014.3 0.0
21/09:00am 33.4 33.0 12.9 28 12.4 SE 7 13 4 7 1015.3 1014.6 0.0
21/08:30am 33.2 33.1 13.8 31 11.8 S 7 15 4 8 1015.5 1014.8 0.0
21/08:00am 31.5 29.0 14.2 35 10.6 NW 20 28 11 15 1014.6 1013.9 0.0
21/07:30am 29.5 27.7 16.0 44 8.4 NW 20 26 11 14 1014.4 1013.7 0.0
21/07:00am 27.0 25.8 16.0 51 6.8 NW 17 20 9 11 1014.3 1013.6 0.0
21/06:30am 24.2 22.6 15.1 56 5.5 NNW 17 20 9 11 1014.1 1013.4 0.0
21/06:00am 22.7 21.7 14.5 60 4.9 NNW 13 17 7 9 1013.9 1013.2 0.0
21/05:30am 23.6 23.6 15.1 59 5.1 NW 9 11 5 6 1013.6 1013.0 0.0
21/05:00am 23.0 22.4 14.6 59 5.0 WNW 11 13 6 7 1013.4 1012.8 0.0
21/04:30am 23.4 23.7 14.9 59 5.1 NNW 7 11 4 6 1012.9 1012.3 0.0
21/04:00am 23.1 21.8 14.7 59 5.0 NNW 15 17 8 9 1012.4 1011.7 0.0
21/03:30am 23.9 23.4 14.9 57 5.4 NW 11 15 6 8 1012.0 1011.3 0.0
21/03:00am 25.4 24.3 15.4 54 6.1 N 15 20 8 11 1012.0 1011.3 0.0
21/02:30am 25.7 25.0 14.2 49 6.9 N 11 17 6 9 1012.3 1011.6 0.0
21/02:00am 23.0 20.8 9.4 42 7.4 NW 11 15 6 8 1011.7 1011.0 0.0
21/01:30am 24.5 22.4 9.6 39 8.2 NNW 11 13 6 7 1012.1 1011.4 0.0
21/01:00am 25.9 22.6 8.0 32 9.6 NW 15 17 8 9 1012.1 1011.4 0.0
21/12:30am 26.1 21.8 5.1 26 10.7 N 17 19 9 10 1012.3 1011.6 0.0
21/12:00am 25.2 22.4 6.9 31 9.6 S 11 15 6 8 1011.9 1011.2 0.0
 
Date/Time
WST
Temp
°C
App
Temp
°C
Dew
Point
Rel
Hum
%
Delta-T
°C
Wind Press
QNH
hPa
Press
MSL
hPa
Rain
since 9 am
mm
Dir
 
Spd
km/h
Gust
km/h
Spd
kts
Gust
kts
20/11:30pm 25.3 24.3 5.5 28 10.2 CALM 0 0 0 0 1012.0 1011.3 0.0
20/11:00pm 26.2 23.9 4.6 25 11.0 WSW 6 11 3 6 1012.4 1011.7 0.0
20/10:30pm 26.9 24.9 6.3 27 10.8 E 6 9 3 5 1012.5 1011.8 0.0
20/10:00pm 27.9 27.1 6.6 26 11.3 CALM 0 9 0 5 1012.6 1011.9 0.0
20/09:30pm 29.3 26.7 4.0 20 12.9 ESE 7 13 4 7 1012.7 1012.0 0.0
20/09:00pm 30.5 28.1 4.3 19 13.6 SSE 6 15 3 8 1012.7 1012.0 0.0
20/08:30pm 31.1 29.6 3.2 17 14.2 CALM 0 0 0 0 1012.6 1011.9 0.0
20/08:00pm 31.2 29.8 3.3 17 14.3 CALM 0 0 0 0 1012.6 1011.9 0.0
20/07:30pm 30.9 29.5 3.8 18 14.0 CALM 0 0 0 0 1012.2 1011.5 0.0
20/07:00pm 31.0 29.2 1.4 15 14.7 CALM 0 0 0 0 1011.8 1011.1 0.0
20/06:30pm 33.0 30.5 3.9 16 15.2 S 6 9 3 5 1011.4 1010.7 0.0
20/06:00pm 34.3 32.8 3.0 14 16.2 CALM 0 0 0 0 1011.1 1010.4 0.0
20/05:30pm 35.9 34.2 2.1 12 17.4 CALM 0 0 0 0 1010.7 1010.0 0.0
20/05:00pm 37.5 34.5 2.1 11 18.5 SSE 7 9 4 5 1010.4 1009.7 0.0
20/04:30pm 38.1 35.0 1.2 10 19.0 SSE 7 13 4 7 1010.3 1009.6 0.0
20/04:00pm 38.3 35.2 1.3 10 19.1 SSE 7 11 4 6 1010.3 1009.6 0.0
20/03:30pm 38.2 34.3 1.3 10 19.1 E 11 17 6 9 1010.3 1009.6 0.0
20/03:00pm 38.9 34.7 1.8 10 19.4 ENE 13 26 7 14 1010.1 1009.4 0.0
20/02:30pm 39.1 35.3 1.9 10 19.5 ENE 11 19 6 10 1010.1 1009.4 0.0
20/02:00pm 39.4 34.3 0.7 9 20.0 SE 17 24 9 13 1010.3 1009.6 0.0
20/01:30pm 38.9 35.9 1.8 10 19.4 S 7 13 4 7 1010.8 1010.1 0.0
20/01:00pm 38.6 34.0 1.6 10 19.3 NNW 15 26 8 14 1011.2 1010.5 0.0
20/12:30pm 38.5 34.9 2.8 11 18.9 NW 11 22 6 12 1011.6 1010.9 0.0
20/12:00pm 38.2 33.0 2.6 11 18.8 N 19 24 10 13 1012.2 1011.5 0.0
20/11:30am 36.8 34.5 4.9 14 17.3 N 6 15 3 8 1012.8 1012.2 0.0
20/11:00am 36.2 34.6 6.4 16 16.5 SE 4 9 2 5 1013.3 1012.7 0.0
20/10:30am 35.2 33.8 7.3 18 15.6 NNW 4 11 2 6 1014.0 1013.3 0.0
20/10:00am 33.4 31.5 7.4 20 14.4 W 7 11 4 6 1014.4 1013.7 0.0
20/09:30am 32.5 30.9 8.0 22 13.6 W 6 11 3 6 1014.7 1014.0 0.0
20/09:00am 31.8 30.2 8.7 24 13.0 W 7 13 4 7 1015.0 1014.3 0.0
20/08:30am 30.6 28.7 8.9 26 12.1 W 9 13 5 7 1015.0 1014.3 0.0
20/08:00am 29.7 27.7 10.3 30 11.1 WNW 11 15 6 8 1014.8 1014.1 0.0
20/07:30am 27.5 27.2 13.4 41 8.4 NW 7 13 4 7 1014.7 1014.0 0.0
20/07:00am 25.4 24.8 14.5 51 6.5 NNW 11 13 6 7 1014.4 1013.7 0.0
20/06:30am 23.9 23.8 14.9 57 5.4 NNW 9 13 5 7 1014.1 1013.4 0.0
20/06:00am 22.5 21.6 14.9 62 4.5 N 13 15 7 8 1013.7 1013.1 0.0
20/05:30am 23.1 22.8 14.4 58 5.1 NW 9 15 5 8 1013.2 1012.6 0.0
20/05:00am 23.8 22.2 15.0 57 5.3 WNW 17 20 9 11 1012.7 1012.0 0.0
20/04:30am 23.5 22.1 15.5 60 4.8 WNW 17 20 9 11 1012.6 1011.9 0.0
20/04:00am 22.5 21.6 14.9 62 4.5 NNW 13 15 7 8 1012.8 1012.2 0.0
20/03:30am 24.0 23.5 16.0 61 4.9 N 13 17 7 9 1012.8 1012.2 0.0
20/03:00am 24.1 23.2 15.9 60 5.0 N 15 20 8 11 1012.8 1012.2 0.0
20/02:30am 24.5 21.7 13.1 49 6.6 N 20 28 11 15 1012.5 1011.8 0.0
20/02:00am 22.1 19.1 5.9 35 8.2 NNE 11 15 6 8 1012.0 1011.3 0.0
20/01:30am 23.4 19.8 2.8 26 9.9 NW 11 15 6 8 1012.2 1011.5 0.0
20/01:00am 21.2 17.4 2.0 28 9.0 WNW 11 19 6 10 1012.3 1011.6 0.0
20/12:30am 23.3 20.6 3.8 28 9.6 WSW 7 9 4 5 1012.3 1011.6 0.0
20/12:00am 23.5 22.4 4.9 30 9.3 CALM 0 0 0 0 1012.8 1012.2 0.0
 
Date/Time
WST
Temp
°C
App
Temp
°C
Dew
Point
Rel
Hum
%
Delta-T
°C
Wind Press
QNH
hPa
Press
MSL
hPa
Rain
since 9 am
mm
Dir
 
Spd
km/h
Gust
km/h
Spd
kts
Gust
kts
19/11:30pm 23.5 22.0 4.9 30 9.3 E 2 7 1 4 1013.1 1012.5 0.0
19/11:00pm 23.6 21.0 4.0 28 9.7 SE 7 15 4 8 1013.4 1012.8 0.0
19/10:30pm 25.9 23.3 3.2 23 11.2 N 6 7 3 4 1013.5 1012.9 0.0
19/10:00pm 25.9 23.1 3.2 23 11.2 N 7 7 4 4 1013.6 1013.0 0.0
19/09:30pm 25.6 24.0 2.3 22 11.3 CALM 0 0 0 0 1013.5 1012.9 0.0
19/09:00pm 26.4 24.7 1.7 20 11.9 CALM 0 0 0 0 1013.5 1012.9 0.0
19/08:30pm 28.5 25.8 2.7 19 12.8 W 6 7 3 4 1013.3 1012.7 0.0
19/08:00pm 29.7 27.1 1.2 16 13.9 W 4 6 2 3 1013.1 1012.5 0.0
19/07:30pm 30.2 27.2 0.7 15 14.3 W 6 7 3 4 1012.9 1012.3 0.0
19/07:00pm 30.9 27.6 0.3 14 14.9 WSW 7 9 4 5 1012.5 1011.8 0.0
19/06:30pm 32.0 28.9 0.2 13 15.5 W 6 7 3 4 1012.2 1011.5 0.0
19/06:00pm 33.6 30.5 0.3 12 16.5 WSW 6 7 3 4 1011.9 1011.2 0.0
19/05:30pm 35.4 31.8 0.5 11 17.5 SSW 9 9 5 5 1011.5 1010.8 0.0
19/05:00pm 36.8 33.1 0.2 10 18.4 S 9 15 5 8 1011.1 1010.4 0.0
19/04:30pm 37.4 33.8 0.7 10 18.7 S 9 19 5 10 1011.0 1010.3 0.0
19/04:00pm 37.5 34.3 0.7 10 18.8 SSW 7 13 4 7 1010.8 1010.1 0.0
19/03:30pm 37.8 33.3 -0.5 9 19.2 S 13 26 7 14 1010.8 1010.1 0.0
19/03:00pm 37.8 34.3 1.0 10 18.9 NE 9 20 5 11 1010.9 1010.2 0.0
19/02:30pm 38.5 34.8 0.0 9 19.5 WSW 9 15 5 8 1011.1 1010.4 0.0
19/02:00pm 37.8 33.1 1.0 10 18.9 WSW 15 20 8 11 1011.2 1010.5 0.0
19/01:30pm 38.9 35.1 1.8 10 19.4 SW 11 20 6 11 1011.7 1011.0 0.0
19/01:00pm 37.9 33.0 -0.4 9 19.2 E 15 20 8 11 1012.2 1011.5 0.0
19/12:30pm 37.8 34.3 1.0 10 18.9 S 9 15 5 8 1012.8 1012.2 0.0
19/12:00pm 36.9 31.9 1.6 11 18.2 SSE 17 28 9 15 1013.3 1012.7 0.0
19/11:30am 36.7 32.3 2.7 12 17.8 S 15 26 8 14 1014.0 1013.3 0.0
19/11:00am 35.6 31.3 3.0 13 17.0 S 15 24 8 13 1014.6 1013.9 0.0
19/10:30am 34.8 30.9 3.4 14 16.4 SSW 13 20 7 11 1015.2 1014.5 0.0
19/10:00am 34.2 30.4 3.9 15 15.9 S 13 22 7 12 1015.7 1015.0 0.0
19/09:30am 33.6 29.3 3.4 15 15.7 SSW 15 24 8 13 1015.9 1015.2 0.0
19/09:00am 32.4 29.7 5.8 19 14.3 SW 9 17 5 9 1016.3 1015.6 0.0
19/08:30am 31.1 29.1 6.9 22 13.1 WSW 7 13 4 7 1016.6 1015.9 0.0
19/08:00am 30.0 27.5 8.4 26 11.9 WNW 11 15 6 8 1016.6 1015.9 0.0
19/07:30am 28.5 25.4 8.7 29 10.9 WNW 15 19 8 10 1016.3 1015.6 0.0
19/07:00am 26.8 24.3 9.6 34 9.5 NW 13 19 7 10 1016.0 1015.3 0.0
19/06:30am 24.1 22.4 10.0 41 7.8 WNW 9 13 5 7 1015.6 1014.9 0.0
19/06:00am 22.1 20.7 8.9 43 7.1 W 6 9 3 5 1015.3 1014.6 0.0
19/05:30am 22.6 21.0 8.7 41 7.4 NNW 7 9 4 5 1014.9 1014.2 0.0
19/05:00am 22.7 21.3 8.8 41 7.4 NNW 6 7 3 4 1014.5 1013.8 0.0
19/04:30am 23.4 21.1 9.0 40 7.8 N 11 15 6 8 1014.1 1013.4 0.0
19/04:00am 23.8 22.1 9.8 41 7.7 N 9 13 5 7 1013.6 1013.0 0.0
19/03:30am 24.0 22.2 10.7 43 7.4 NNE 11 13 6 7 1013.4 1012.8 0.0
19/03:00am 23.2 21.1 9.9 43 7.3 N 11 13 6 7 1013.1 1012.5 0.0
19/02:30am 22.9 20.3 9.3 42 7.4 NNW 13 15 7 8 1012.8 1012.2 0.0
19/02:00am 23.9 21.5 8.7 38 8.2 NW 11 13 6 7 1012.9 1012.3 0.0
19/01:30am 25.6 23.0 9.4 36 8.9 NNW 13 17 7 9 1012.7 1012.0 0.0
19/01:00am 26.9 25.1 9.3 33 9.7 WNW 9 13 5 7 1012.9 1012.3 0.0
19/12:30am 27.8 24.4 9.1 31 10.4 W 17 22 9 12 1012.9 1012.3 0.0
19/12:00am 26.1 23.2 4.6 25 10.9 W 9 17 5 9 1013.1 1012.5 0.0
 
Date/Time
WST
Temp
°C
App
Temp
°C
Dew
Point
Rel
Hum
%
Delta-T
°C
Wind Press
QNH
hPa
Press
MSL
hPa
Rain
since 9 am
mm
Dir
 
Spd
km/h
Gust
km/h
Spd
kts
Gust
kts
18/11:30pm 25.8 23.4 5.4 27 10.5 WSW 7 11 4 6 1013.2 1012.6 0.0
18/11:00pm 26.7 24.3 4.5 24 11.3 W 6 9 3 5 1013.4 1012.8 0.0
18/10:30pm 25.9 23.2 3.8 24 11.0 W 7 9 4 5 1013.6 1013.0 0.0
18/10:00pm 28.0 25.0 4.3 22 12.1 WSW 9 13 5 7 1013.9 1013.2 0.0
18/09:30pm 27.9 25.3 4.2 22 12.1 WSW 7 9 4 5 1014.1 1013.4 0.0
18/09:00pm 28.1 25.4 3.7 21 12.3 W 7 7 4 4 1014.1 1013.4 0.0
18/08:30pm 28.5 25.9 4.1 21 12.4 WSW 7 9 4 5 1013.9 1013.2 0.0
18/08:00pm 29.6 27.0 4.3 20 13.0 WSW 7 9 4 5 1013.7 1013.1 0.0

Other Formats:

Comma delimited format used in spreadsheet applications
http://www.bom.gov.au/fwo/IDW60801/IDW60801.94206.axf

JavaScript Object Notation format (JSON) in row-major order
http://www.bom.gov.au/fwo/IDW60801/IDW60801.94206.json